Time;durP1;ratioP1;P1;durP2;ratioP2;P2;SDS_P1;SDS_P2;PMS_P1;PMS_P2;Temp;Humidity;BMP_temperature;BMP_pressure;BME280_temperature;BME280_humidity;BME280_pressure;Samples;Min_cycle;Max_cycle;Signal;HPM_P1;HPM_P2
2022/11/21 00:00:44;;;;;;;;;;;;;;;;;;4903753;29;19923;-85
2022/11/21 00:03:31;;;;;;;;;;;;;;;;;;4908028;29;19927;-88
2022/11/21 00:06:17;;;;;;;;;;;;;;;;;;4899452;29;19920;-87
2022/11/21 00:09:04;;;;;;;;;;;;;;;;;;4904238;29;19912;-88
2022/11/21 00:11:51;;;;;;;;;;;;;;;;;;4904026;29;20328;-87
2022/11/21 00:14:37;;;;;;;;;;;;;;;;;;4909145;29;19922;-88
2022/11/21 00:17:24;;;;;;;;;;;;;;;;;;4907043;29;19912;-88
2022/11/21 00:20:11;;;;;;;;;;;;;;;;;;4900534;29;19918;-87
2022/11/21 00:22:57;;;;;;;;;;;;;;;;;;4907534;29;19926;-86
2022/11/21 00:25:43;;;;;;;;;;;;;;;;;;4897935;29;19911;-87
2022/11/21 00:28:30;;;;;;;;;;;;;;;;;;4907682;29;19911;-87
2022/11/21 00:31:16;;;;;;;;;;;;;;;;;;4910867;29;19923;-87
2022/11/21 00:34:03;;;;;;;;;;;;;;;;;;4905504;29;20519;-86
2022/11/21 00:36:49;;;;;;;;;;;;;;;;;;4910825;29;19915;-87
2022/11/21 00:39:36;;;;;;;;;;;;;;;;;;4909746;29;19922;-86
2022/11/21 00:42:22;;;;;;;;;;;;;;;;;;4908199;29;19930;-87
2022/11/21 00:45:09;;;;;;;;;;;;;;;;;;4910910;29;19923;-87
2022/11/21 00:47:55;;;;;;;;;;;;;;;;;;4912134;29;19930;-87
2022/11/21 00:50:42;;;;;;;;;;;;;;;;;;4901902;29;19919;-86
2022/11/21 00:53:28;;;;;;;;;;;;;;;;;;4907260;29;20391;-87
2022/11/21 00:56:15;;;;;;;;;;;;;;;;;;4904351;29;19937;-87
2022/11/21 00:59:02;;;;;;;;;;;;;;;;;;4918386;29;19911;-87
2022/11/21 01:01:48;;;;;;;;;;;;;;;;;;4906073;29;19942;-86
2022/11/21 01:04:35;;;;;;;;;;;;;;;;;;4904522;29;19924;-86
2022/11/21 01:07:21;;;;;;;;;;;;;;;;;;4921344;29;19915;-84
2022/11/21 01:10:08;;;;;;;;;;;;;;;;;;4906103;29;20279;-85
2022/11/21 01:12:54;;;;;;;;;;;;;;;;;;4902615;29;19916;-85
2022/11/21 01:15:41;;;;;;;;;;;;;;;;;;4905765;29;19941;-85
2022/11/21 01:18:27;;;;;;;;;;;;;;;;;;4906295;29;19915;-85
2022/11/21 01:21:13;;;;;;;;;;;;;;;;;;4910402;29;19919;-85
2022/11/21 01:24:00;;;;;;;;;;;;;;;;;;4907722;29;19911;-85
2022/11/21 01:26:49;;;;;;;;;;;;;;;;;;4901444;29;20001;-85
2022/11/21 01:29:36;;;;;;;;;;;;;;;;;;4906448;29;20659;-86
2022/11/21 01:32:22;;;;;;;;;;;;;;;;;;4913055;29;20565;-85
2022/11/21 01:35:09;;;;;;;;;;;;;;;;;;4906314;29;19912;-85
2022/11/21 01:37:55;;;;;;;;;;;;;;;;;;4902727;29;19912;-85
2022/11/21 01:40:42;;;;;;;;;;;;;;;;;;4903163;29;20370;-84
2022/11/21 01:43:28;;;;;;;;;;;;;;;;;;4900844;29;19920;-85
2022/11/21 01:46:15;;;;;;;;;;;;;;;;;;4906155;29;20322;-85
2022/11/21 01:49:01;;;;;;;;;;;;;;;;;;4899205;29;19923;-85
2022/11/21 01:51:47;;;;;;;;;;;;;;;;;;4907677;29;19946;-84
2022/11/21 01:54:34;;;;;;;;;;;;;;;;;;4912290;29;19911;-86
2022/11/21 01:57:20;;;;;;;;;;;;;;;;;;4910686;29;19917;-87
2022/11/21 02:00:07;;;;;;;;;;;;;;;;;;4906435;29;20375;-86
2022/11/21 02:02:54;;;;;;;;;;;;;;;;;;4906847;29;19911;-86
2022/11/21 02:05:40;;;;;;;;;;;;;;;;;;4904308;29;20307;-87
2022/11/21 02:08:27;;;;;;;;;;;;;;;;;;4900477;29;19916;-86
2022/11/21 02:11:13;;;;;;;;;;;;;;;;;;4896934;29;19920;-86
2022/11/21 02:14:00;;;;;;;;;;;;;;;;;;4902353;29;19930;-87
2022/11/21 02:16:46;;;;;;;;;;;;;;;;;;4907212;29;19931;-86
2022/11/21 02:19:33;;;;;;;;;;;;;;;;;;4904239;29;19915;-85
2022/11/21 02:22:19;;;;;;;;;;;;;;;;;;4906522;29;19915;-85
2022/11/21 02:25:06;;;;;;;;;;;;;;;;;;4902767;29;19911;-86
2022/11/21 02:27:52;;;;;;;;;;;;;;;;;;4903439;29;19938;-86
2022/11/21 02:30:38;;;;;;;;;;;;;;;;;;4900928;29;19923;-86
2022/11/21 02:33:25;;;;;;;;;;;;;;;;;;4924099;29;19911;-87
2022/11/21 02:36:11;;;;;;;;;;;;;;;;;;4904788;29;19937;-86
2022/11/21 02:38:58;;;;;;;;;;;;;;;;;;4901397;29;19915;-86
2022/11/21 02:41:44;;;;;;;;;;;;;;;;;;4910242;29;19912;-86
2022/11/21 02:44:31;;;;;;;;;;;;;;;;;;4909782;29;19919;-85
2022/11/21 02:47:17;;;;;;;;;;;;;;;;;;4907712;29;20371;-86
2022/11/21 02:50:04;;;;;;;;;;;;;;;;;;4906628;29;19912;-86
2022/11/21 02:52:50;;;;;;;;;;;;;;;;;;4898733;29;20518;-84
2022/11/21 02:55:37;;;;;;;;;;;;;;;;;;4902762;29;20376;-85
2022/11/21 02:58:23;;;;;;;;;;;;;;;;;;4896222;29;19919;-84
2022/11/21 03:01:10;;;;;;;;;;;;;;;;;;4904096;29;19915;-86
2022/11/21 03:03:56;;;;;;;;;;;;;;;;;;4902899;29;19923;-85
2022/11/21 03:06:43;;;;;;;;;;;;;;;;;;4910649;29;19917;-86
2022/11/21 03:09:29;;;;;;;;;;;;;;;;;;4906558;29;19921;-86
2022/11/21 03:12:16;;;;;;;;;;;;;;;;;;4906235;29;19950;-83
2022/11/21 03:15:02;;;;;;;;;;;;;;;;;;4913134;29;20383;-84
2022/11/21 03:17:49;;;;;;;;;;;;;;;;;;4902667;29;19915;-86
2022/11/21 03:20:35;;;;;;;;;;;;;;;;;;4906126;29;19915;-86
2022/11/21 03:23:22;;;;;;;;;;;;;;;;;;4906628;29;19923;-84
2022/11/21 03:26:08;;;;;;;;;;;;;;;;;;4911117;29;19918;-86
2022/11/21 03:28:54;;;;;;;;;;;;;;;;;;4897382;29;20382;-86
2022/11/21 03:31:41;;;;;;;;;;;;;;;;;;4911526;29;20439;-86
2022/11/21 03:34:27;;;;;;;;;;;;;;;;;;4917117;29;19918;-86
2022/11/21 03:37:14;;;;;;;;;;;;;;;;;;4904397;29;19915;-85
2022/11/21 03:40:00;;;;;;;;;;;;;;;;;;4912687;29;19917;-85
2022/11/21 03:42:47;;;;;;;;;;;;;;;;;;4914055;29;19915;-86
2022/11/21 03:45:33;;;;;;;;;;;;;;;;;;4909378;29;19933;-85
2022/11/21 03:48:20;;;;;;;;;;;;;;;;;;4908908;29;19942;-86
2022/11/21 03:51:06;;;;;;;;;;;;;;;;;;4909219;29;19924;-86
2022/11/21 03:53:53;;;;;;;;;;;;;;;;;;4905813;29;19918;-85
2022/11/21 03:56:39;;;;;;;;;;;;;;;;;;4905317;29;19919;-87
2022/11/21 03:59:26;;;;;;;;;;;;;;;;;;4908845;29;20623;-87
2022/11/21 04:02:12;;;;;;;;;;;;;;;;;;4913522;29;20380;-87
2022/11/21 04:04:59;;;;;;;;;;;;;;;;;;4916393;29;19930;-88
2022/11/21 04:07:45;;;;;;;;;;;;;;;;;;4910535;29;19915;-88
2022/11/21 04:10:32;;;;;;;;;;;;;;;;;;4910959;29;19919;-87
2022/11/21 04:13:18;;;;;;;;;;;;;;;;;;4907100;29;19922;-88
2022/11/21 04:16:05;;;;;;;;;;;;;;;;;;4903524;29;19918;-88
2022/11/21 04:18:51;;;;;;;;;;;;;;;;;;4901519;29;19922;-88
2022/11/21 04:21:37;;;;;;;;;;;;;;;;;;4897444;29;19949;-87
2022/11/21 04:24:24;;;;;;;;;;;;;;;;;;4902920;29;19911;-87
2022/11/21 04:27:10;;;;;;;;;;;;;;;;;;4907149;29;19927;-88
2022/11/21 04:29:57;;;;;;;;;;;;;;;;;;4904544;29;19912;-85
2022/11/21 04:32:43;;;;;;;;;;;;;;;;;;4897163;29;19924;-86
2022/11/21 04:35:30;;;;;;;;;;;;;;;;;;4909258;29;19923;-86
2022/11/21 04:38:16;;;;;;;;;;;;;;;;;;4903250;29;20416;-85
2022/11/21 04:41:03;;;;;;;;;;;;;;;;;;4907939;29;19922;-86
2022/11/21 04:43:50;;;;;;;;;;;;;;;;;;4894934;29;19915;-87
2022/11/21 04:46:36;;;;;;;;;;;;;;;;;;4905862;29;20079;-88
2022/11/21 04:49:23;;;;;;;;;;;;;;;;;;4900590;29;19930;-81
2022/11/21 04:52:10;;;;;;;;;;;;;;;;;;4905977;29;19919;-81
2022/11/21 04:54:57;;;;;;;;;;;;;;;;;;4898177;29;19922;-82
2022/11/21 04:57:43;;;;;;;;;;;;;;;;;;4898095;29;19912;-81
2022/11/21 05:00:30;;;;;;;;;;;;;;;;;;4900257;29;20399;-82
2022/11/21 05:03:16;;;;;;;;;;;;;;;;;;4903049;29;19923;-78
2022/11/21 05:06:03;;;;;;;;;;;;;;;;;;4904051;29;20272;-79
2022/11/21 05:08:49;;;;;;;;;;;;;;;;;;4905043;29;19919;-79
2022/11/21 05:14:41;;;;;;;;;;;;;;;;;;4903328;29;19915;-80
2022/11/21 05:17:27;;;;;;;;;;;;;;;;;;4906243;29;19927;-79
2022/11/21 05:20:14;;;;;;;;;;;;;;;;;;4902472;29;19915;-80
2022/11/21 05:23:00;;;;;;;;;;;;;;;;;;4910367;29;20008;-80
2022/11/21 05:25:47;;;;;;;;;;;;;;;;;;4904497;29;19911;-83
2022/11/21 05:28:33;;;;;;;;;;;;;;;;;;4901084;29;19919;-82
2022/11/21 05:31:20;;;;;;;;;;;;;;;;;;4905941;29;19942;-82
2022/11/21 05:34:06;;;;;;;;;;;;;;;;;;4907293;29;19922;-83
2022/11/21 05:36:59;;;;;;;;;;;;;;;;;;4901756;29;19916;-84
2022/11/21 05:39:45;;;;;;;;;;;;;;;;;;4905068;29;20271;-83
2022/11/21 05:45:37;;;;;;;;;;;;;;;;;;4911430;29;20292;-82
2022/11/21 05:48:23;;;;;;;;;;;;;;;;;;4910048;29;19911;-81
2022/11/21 05:51:10;;;;;;;;;;;;;;;;;;4913223;29;19923;-86
2022/11/21 05:53:56;;;;;;;;;;;;;;;;;;4903589;29;19915;-85
2022/11/21 05:56:43;;;;;;;;;;;;;;;;;;4910571;29;19922;-86
2022/11/21 05:59:29;;;;;;;;;;;;;;;;;;4904355;29;19911;-86
2022/11/21 06:05:21;;;;;;;;;;;;;;;;;;4901080;29;19927;-86
2022/11/21 06:08:07;;;;;;;;;;;;;;;;;;4902093;29;19935;-86
2022/11/21 06:10:54;;;;;;;;;;;;;;;;;;4911816;29;20375;-85
2022/11/21 06:13:40;;;;;;;;;;;;;;;;;;4906165;29;19922;-85
2022/11/21 06:16:27;;;;;;;;;;;;;;;;;;4902077;29;19921;-85
2022/11/21 06:19:13;;;;;;;;;;;;;;;;;;4904081;29;20394;-84
2022/11/21 06:22:00;;;;;;;;;;;;;;;;;;4901084;29;19922;-85
2022/11/21 06:24:46;;;;;;;;;;;;;;;;;;4910078;29;20256;-84
2022/11/21 06:27:33;;;;;;;;;;;;;;;;;;4909234;29;19911;-84
2022/11/21 06:30:19;;;;;;;;;;;;;;;;;;4911642;29;19915;-84
2022/11/21 06:33:06;;;;;;;;;;;;;;;;;;4912142;29;20494;-85
2022/11/21 06:35:52;;;;;;;;;;;;;;;;;;4909018;29;19915;-85
2022/11/21 06:38:39;;;;;;;;;;;;;;;;;;4904349;29;19919;-85
2022/11/21 06:41:25;;;;;;;;;;;;;;;;;;4893940;29;19918;-84
2022/11/21 06:44:12;;;;;;;;;;;;;;;;;;4899489;29;19922;-86
2022/11/21 06:46:58;;;;;;;;;;;;;;;;;;4895006;29;19911;-86
2022/11/21 06:49:45;;;;;;;;;;;;;;;;;;4906319;29;19918;-87
2022/11/21 06:52:31;;;;;;;;;;;;;;;;;;4908151;29;19935;-84
2022/11/21 06:55:18;;;;;;;;;;;;;;;;;;4908563;29;19937;-85
2022/11/21 06:58:04;;;;;;;;;;;;;;;;;;4905424;29;20359;-83
2022/11/21 07:00:50;;;;;;;;;;;;;;;;;;4901446;29;19916;-86
2022/11/21 07:03:37;;;;;;;;;;;;;;;;;;4902619;29;20237;-86
2022/11/21 07:06:23;;;;;;;;;;;;;;;;;;4915264;29;19915;-86
2022/11/21 07:09:10;;;;;;;;;;;;;;;;;;4906630;29;19915;-85
2022/11/21 07:13:20;;;;;;;;;;;;;;;;;;4912455;29;19927;-86
2022/11/21 07:15:03;;;;;;;;;;;;;;;;;;4906747;29;19919;-85
2022/11/21 07:17:49;;;;;;;;;;;;;;;;;;4918232;29;19930;-85
2022/11/21 07:20:36;;;;;;;;;;;;;;;;;;4914913;29;19949;-84
2022/11/21 07:23:22;;;;;;;;;;;;;;;;;;4914561;29;19962;-85
2022/11/21 07:26:09;;;;;;;;;;;;;;;;;;4905113;29;19911;-84
2022/11/21 07:28:55;;;;;;;;;;;;;;;;;;4908896;29;20271;-84
2022/11/21 07:31:42;;;;;;;;;;;;;;;;;;4915286;29;19923;-84
2022/11/21 07:34:28;;;;;;;;;;;;;;;;;;4901234;29;20261;-92
2022/11/21 07:37:15;;;;;;;;;;;;;;;;;;4917190;29;19918;-88
2022/11/21 07:40:01;;;;;;;;;;;;;;;;;;4919636;29;19926;-91
2022/11/21 07:42:47;;;;;;;;;;;;;;;;;;4910772;29;19916;-91
2022/11/21 07:45:34;;;;;;;;;;;;;;;;;;4909162;29;19919;-91
2022/11/21 07:48:20;;;;;;;;;;;;;;;;;;4915016;29;19919;-90
2022/11/21 07:51:07;;;;;;;;;;;;;;;;;;4912210;29;19930;-90
2022/11/21 07:53:53;;;;;;;;;;;;;;;;;;4927212;29;19915;-91
2022/11/21 07:56:40;;;;;;;;;;;;;;;;;;4916296;29;19933;-90
2022/11/21 07:59:27;;;;;;;;;;;;;;;;;;4913095;29;19931;-90
2022/11/21 08:02:14;;;;;;;;;;;;;;;;;;4908530;29;19918;-90
2022/11/21 08:05:00;;;;;;;;;;;;;;;;;;4909523;29;20001;-87
2022/11/21 08:07:47;;;;;;;;;;;;;;;;;;4908957;29;19938;-85
2022/11/21 08:10:33;;;;;;;;;;;;;;;;;;4908822;29;19926;-86
2022/11/21 08:13:20;;;;;;;;;;;;;;;;;;4908550;29;20033;-86
2022/11/21 08:16:06;;;;;;;;;;;;;;;;;;4903956;29;20398;-85
2022/11/21 08:18:53;;;;;;;;;;;;;;;;;;4903428;29;19911;-84
2022/11/21 08:21:39;;;;;;;;;;;;;;;;;;4902179;29;19922;-85
2022/11/21 08:24:26;;;;;;;;;;;;;;;;;;4904002;29;19922;-86
2022/11/21 08:27:13;;;;;;;;;;;;;;;;;;4913958;29;19915;-86
2022/11/21 08:29:59;;;;;;;;;;;;;;;;;;4904967;29;20286;-84
2022/11/21 08:32:46;;;;;;;;;;;;;;;;;;4912575;29;19927;-85
2022/11/21 08:35:32;;;;;;;;;;;;;;;;;;4903455;29;19919;-84
2022/11/21 08:38:19;;;;;;;;;;;;;;;;;;4910250;29;19911;-85
2022/11/21 08:44:11;;;;;;;;;;;;;;;;;;4914547;29;19963;-85
2022/11/21 08:46:57;;;;;;;;;;;;;;;;;;4909601;29;19991;-85
2022/11/21 08:49:47;;;;;;;;;;;;;;;;;;4901615;29;20370;-85
2022/11/21 08:52:33;;;;;;;;;;;;;;;;;;4905452;29;19930;-85
2022/11/21 08:55:21;;;;;;;;;;;;;;;;;;4897536;29;20423;-85
2022/11/21 08:58:08;;;;;;;;;;;;;;;;;;4908999;29;20356;-86
2022/11/21 09:00:54;;;;;;;;;;;;;;;;;;4906815;29;19916;-85
2022/11/21 09:03:41;;;;;;;;;;;;;;;;;;4900103;29;19923;-86
2022/11/21 09:06:27;;;;;;;;;;;;;;;;;;4909228;29;19911;-85
2022/11/21 09:09:14;;;;;;;;;;;;;;;;;;4900937;29;20499;-85
2022/11/21 09:12:01;;;;;;;;;;;;;;;;;;4900536;29;21215;-85
2022/11/21 09:18:02;;;;;;;;;;;;;;;;;;4898386;29;20009;-86
2022/11/21 09:20:49;;;;;;;;;;;;;;;;;;4906965;29;19918;-84
2022/11/21 09:23:35;;;;;;;;;;;;;;;;;;4904758;29;19922;-85
2022/11/21 09:26:22;;;;;;;;;;;;;;;;;;4910689;29;19920;-85
2022/11/21 09:29:13;;;;;;;;;;;;;;;;;;4912646;29;19922;-85
2022/11/21 09:32:00;;;;;;;;;;;;;;;;;;4900670;29;20006;-85
2022/11/21 09:34:46;;;;;;;;;;;;;;;;;;4902957;29;19926;-85
2022/11/21 09:37:33;;;;;;;;;;;;;;;;;;4903804;29;19919;-84
2022/11/21 09:40:19;;;;;;;;;;;;;;;;;;4900769;29;19933;-84
2022/11/21 09:43:06;;;;;;;;;;;;;;;;;;4898829;29;19942;-84
2022/11/21 09:45:52;;;;;;;;;;;;;;;;;;4904119;29;19918;-84
2022/11/21 09:48:39;;;;;;;;;;;;;;;;;;4904598;29;19938;-85
2022/11/21 09:51:25;;;;;;;;;;;;;;;;;;4896803;29;19938;-84
2022/11/21 09:54:12;;;;;;;;;;;;;;;;;;4908405;29;19919;-84
2022/11/21 09:56:59;;;;;;;;;;;;;;;;;;4903674;29;19916;-84
2022/11/21 09:59:46;;;;;;;;;;;;;;;;;;4906161;29;19915;-84
2022/11/21 10:02:32;;;;;;;;;;;;;;;;;;4905538;29;19912;-84
2022/11/21 10:05:19;;;;;;;;;;;;;;;;;;4906771;29;20297;-84
2022/11/21 10:08:05;;;;;;;;;;;;;;;;;;4910148;29;19919;-85
2022/11/21 10:10:52;;;;;;;;;;;;;;;;;;4911986;29;19942;-84
2022/11/21 10:13:38;;;;;;;;;;;;;;;;;;4911644;29;19915;-84
2022/11/21 10:16:25;;;;;;;;;;;;;;;;;;4914819;29;19919;-85
2022/11/21 10:19:11;;;;;;;;;;;;;;;;;;4906588;29;20655;-85
2022/11/21 10:21:58;;;;;;;;;;;;;;;;;;4909644;29;19922;-84
2022/11/21 10:24:44;;;;;;;;;;;;;;;;;;4911755;29;19915;-84
2022/11/21 10:27:31;;;;;;;;;;;;;;;;;;4906567;29;19922;-84
2022/11/21 10:30:17;;;;;;;;;;;;;;;;;;4900977;29;19923;-85
2022/11/21 10:33:04;;;;;;;;;;;;;;;;;;4902595;29;19927;-85
2022/11/21 10:35:50;;;;;;;;;;;;;;;;;;4896802;29;19915;-84
2022/11/21 10:38:37;;;;;;;;;;;;;;;;;;4897621;29;19919;-84
2022/11/21 10:41:23;;;;;;;;;;;;;;;;;;4890422;29;19912;-85
2022/11/21 10:47:15;;;;;;;;;;;;;;;;;;4904036;29;19926;-84
2022/11/21 10:50:02;;;;;;;;;;;;;;;;;;4912606;29;19919;-84
2022/11/21 10:52:48;;;;;;;;;;;;;;;;;;4901464;29;20015;-83
2022/11/21 10:55:35;;;;;;;;;;;;;;;;;;4901664;29;19923;-84
2022/11/21 10:58:21;;;;;;;;;;;;;;;;;;4905409;29;20401;-85
2022/11/21 11:01:08;;;;;;;;;;;;;;;;;;4907834;29;19922;-85
2022/11/21 11:03:54;;;;;;;;;;;;;;;;;;4896207;29;19923;-85
2022/11/21 11:06:41;;;;;;;;;;;;;;;;;;4902473;29;19920;-85
2022/11/21 11:09:27;;;;;;;;;;;;;;;;;;4910840;29;19915;-85
2022/11/21 11:12:14;;;;;;;;;;;;;;;;;;4904820;29;19920;-85
2022/11/21 11:15:02;;;;;;;;;;;;;;;;;;4907749;29;21536;-85
2022/11/21 11:17:48;;;;;;;;;;;;;;;;;;4907123;29;19915;-86
2022/11/21 11:20:35;;;;;;;;;;;;;;;;;;4909815;29;20360;-85
2022/11/21 11:23:21;;;;;;;;;;;;;;;;;;4906417;29;19946;-84
2022/11/21 11:26:08;;;;;;;;;;;;;;;;;;4898473;29;19922;-85
2022/11/21 11:28:54;;;;;;;;;;;;;;;;;;4906474;29;20010;-85
2022/11/21 11:31:41;;;;;;;;;;;;;;;;;;4908207;29;19923;-85
2022/11/21 11:34:28;;;;;;;;;;;;;;;;;;4906371;29;19919;-86
2022/11/21 11:37:14;;;;;;;;;;;;;;;;;;4900191;29;19915;-85
2022/11/21 11:40:01;;;;;;;;;;;;;;;;;;4902016;29;19923;-86
2022/11/21 11:49:00;;;;;;;;;;;;;;;;;;4902009;29;19995;-86
2022/11/21 11:51:46;;;;;;;;;;;;;;;;;;4903944;29;19964;-86
2022/11/21 11:54:33;;;;;;;;;;;;;;;;;;4911709;29;19920;-89
2022/11/21 11:57:19;;;;;;;;;;;;;;;;;;4908300;29;19918;-89
2022/11/21 12:00:06;;;;;;;;;;;;;;;;;;4902675;29;19923;-88
2022/11/21 12:02:52;;;;;;;;;;;;;;;;;;4904588;29;19915;-87
2022/11/21 12:05:39;;;;;;;;;;;;;;;;;;4904869;29;20376;-88
2022/11/21 12:08:25;;;;;;;;;;;;;;;;;;4913984;29;20360;-88
2022/11/21 12:15:47;;;;;;;;;;;;;;;;;;4908487;29;19923;-87
2022/11/21 12:17:25;;;;;;;;;;;;;;;;;;4906622;29;19922;-88
2022/11/21 12:20:11;;;;;;;;;;;;;;;;;;4904167;29;20427;-88
2022/11/21 12:22:57;;;;;;;;;;;;;;;;;;4903570;29;19923;-86
2022/11/21 12:25:44;;;;;;;;;;;;;;;;;;4899031;29;19919;-86
2022/11/21 12:28:31;;;;;;;;;;;;;;;;;;4923957;29;20374;-86
2022/11/21 12:31:17;;;;;;;;;;;;;;;;;;4911873;29;19943;-81
2022/11/21 12:34:04;;;;;;;;;;;;;;;;;;4906397;29;19918;-86
2022/11/21 12:36:50;;;;;;;;;;;;;;;;;;4911806;29;20032;-86
2022/11/21 12:39:36;;;;;;;;;;;;;;;;;;4906543;29;19916;-86
2022/11/21 12:45:28;;;;;;;;;;;;;;;;;;4903089;29;19911;-86
2022/11/21 12:54:37;;;;;;;;;;;;;;;;;;4904354;29;19915;-86
2022/11/21 12:57:24;;;;;;;;;;;;;;;;;;4909680;29;19918;-85
2022/11/21 13:00:10;;;;;;;;;;;;;;;;;;4902702;29;19918;-86
2022/11/21 13:02:57;;;;;;;;;;;;;;;;;;4904338;29;20806;-86
2022/11/21 13:05:43;;;;;;;;;;;;;;;;;;4903024;29;19927;-86
2022/11/21 13:08:30;;;;;;;;;;;;;;;;;;4906764;29;19911;-86
2022/11/21 13:14:21;;;;;;;;;;;;;;;;;;4908715;29;19926;-86
2022/11/21 13:17:08;;;;;;;;;;;;;;;;;;4908358;29;19922;-86
2022/11/21 13:19:55;;;;;;;;;;;;;;;;;;4912318;29;20398;-86
2022/11/21 13:22:41;;;;;;;;;;;;;;;;;;4904685;29;19962;-85
2022/11/21 13:25:28;;;;;;;;;;;;;;;;;;4901389;29;19915;-85
2022/11/21 13:28:15;;;;;;;;;;;;;;;;;;4903589;29;19915;-86
2022/11/21 13:31:01;;;;;;;;;;;;;;;;;;4902949;29;19926;-85
2022/11/21 13:33:48;;;;;;;;;;;;;;;;;;4907739;29;20320;-85
2022/11/21 13:36:35;;;;;;;;;;;;;;;;;;4907793;29;19911;-85
2022/11/21 13:39:21;;;;;;;;;;;;;;;;;;4907377;29;19915;-84
2022/11/21 13:45:13;;;;;;;;;;;;;;;;;;4908319;29;19915;-86
2022/11/21 13:47:59;;;;;;;;;;;;;;;;;;4899675;29;20380;-87
2022/11/21 13:50:46;;;;;;;;;;;;;;;;;;4908501;29;19911;-84
2022/11/21 13:53:32;;;;;;;;;;;;;;;;;;4901929;29;19930;-85
2022/11/21 13:56:19;;;;;;;;;;;;;;;;;;4907734;29;19912;-85
2022/11/21 13:59:05;;;;;;;;;;;;;;;;;;4907016;29;19930;-86
2022/11/21 14:01:52;;;;;;;;;;;;;;;;;;4912516;29;20004;-85
2022/11/21 14:04:38;;;;;;;;;;;;;;;;;;4905764;29;20307;-77
2022/11/21 14:07:25;;;;;;;;;;;;;;;;;;4901027;29;19916;-77
2022/11/21 14:10:11;;;;;;;;;;;;;;;;;;4904999;29;19915;-77
2022/11/21 14:12:57;;;;;;;;;;;;;;;;;;4901536;29;20372;-77
2022/11/21 14:15:44;;;;;;;;;;;;;;;;;;4905278;29;19911;-77
2022/11/21 14:18:30;;;;;;;;;;;;;;;;;;4912674;29;21081;-77
2022/11/21 14:21:17;;;;;;;;;;;;;;;;;;4905102;29;20664;-77
2022/11/21 14:24:03;;;;;;;;;;;;;;;;;;4900148;29;19915;-77
2022/11/21 14:26:50;;;;;;;;;;;;;;;;;;4909825;29;19915;-77
2022/11/21 14:29:36;;;;;;;;;;;;;;;;;;4908797;29;19911;-77
2022/11/21 14:32:23;;;;;;;;;;;;;;;;;;4903252;29;19946;-77
2022/11/21 14:35:09;;;;;;;;;;;;;;;;;;4908020;29;19918;-77
2022/11/21 14:37:56;;;;;;;;;;;;;;;;;;4908627;29;19912;-77
2022/11/21 14:40:42;;;;;;;;;;;;;;;;;;4911611;29;19911;-77
2022/11/21 14:43:29;;;;;;;;;;;;;;;;;;4913612;29;19911;-76
2022/11/21 14:46:15;;;;;;;;;;;;;;;;;;4901958;29;19915;-75
2022/11/21 14:49:02;;;;;;;;;;;;;;;;;;4912502;29;20295;-75
2022/11/21 14:51:48;;;;;;;;;;;;;;;;;;4906144;29;19923;-75
2022/11/21 14:54:35;;;;;;;;;;;;;;;;;;4899111;29;19915;-75
2022/11/21 14:57:22;;;;;;;;;;;;;;;;;;4905723;29;19918;-75
2022/11/21 15:00:09;;;;;;;;;;;;;;;;;;4901074;29;19911;-75
2022/11/21 15:02:56;;;;;;;;;;;;;;;;;;4907679;29;19915;-75
2022/11/21 15:05:42;;;;;;;;;;;;;;;;;;4908809;29;19923;-76
2022/11/21 15:08:29;;;;;;;;;;;;;;;;;;4911152;29;19926;-75
2022/11/21 15:11:15;;;;;;;;;;;;;;;;;;4905167;29;19974;-75
2022/11/21 15:14:02;;;;;;;;;;;;;;;;;;4907339;29;20291;-75
2022/11/21 15:16:48;;;;;;;;;;;;;;;;;;4912695;29;19918;-75
2022/11/21 15:19:35;;;;;;;;;;;;;;;;;;4905256;29;20428;-75
2022/11/21 15:22:21;;;;;;;;;;;;;;;;;;4896418;29;19926;-76
2022/11/21 15:25:08;;;;;;;;;;;;;;;;;;4908286;29;20494;-77
2022/11/21 15:27:54;;;;;;;;;;;;;;;;;;4901733;29;19911;-76
2022/11/21 15:30:41;;;;;;;;;;;;;;;;;;4912862;29;19922;-76
2022/11/21 15:33:27;;;;;;;;;;;;;;;;;;4908944;29;19927;-75
2022/11/21 15:36:14;;;;;;;;;;;;;;;;;;4899374;29;19924;-77
2022/11/21 15:39:00;;;;;;;;;;;;;;;;;;4908703;29;19915;-77
2022/11/21 15:41:47;;;;;;;;;;;;;;;;;;4905767;29;19927;-77
2022/11/21 15:44:33;;;;;;;;;;;;;;;;;;4905134;29;20319;-78
2022/11/21 15:47:20;;;;;;;;;;;;;;;;;;4901196;29;20389;-77
2022/11/21 15:50:06;;;;;;;;;;;;;;;;;;4904605;29;19919;-77
2022/11/21 15:52:53;;;;;;;;;;;;;;;;;;4908939;29;19946;-76
2022/11/21 15:55:39;;;;;;;;;;;;;;;;;;4904804;29;20160;-77
2022/11/21 15:58:26;;;;;;;;;;;;;;;;;;4910523;29;19918;-78
2022/11/21 16:01:13;;;;;;;;;;;;;;;;;;4905882;29;19915;-77
2022/11/21 16:04:00;;;;;;;;;;;;;;;;;;4908012;29;19923;-77
2022/11/21 16:06:46;;;;;;;;;;;;;;;;;;4903962;29;19915;-77
2022/11/21 16:09:33;;;;;;;;;;;;;;;;;;4899661;29;19918;-77
2022/11/21 16:12:19;;;;;;;;;;;;;;;;;;4905742;29;20319;-77
2022/11/21 16:15:06;;;;;;;;;;;;;;;;;;4904600;29;19967;-77
2022/11/21 16:17:52;;;;;;;;;;;;;;;;;;4903854;29;19925;-77
2022/11/21 16:20:39;;;;;;;;;;;;;;;;;;4905038;29;20368;-78
2022/11/21 16:23:26;;;;;;;;;;;;;;;;;;4904145;29;19923;-77
2022/11/21 16:26:12;;;;;;;;;;;;;;;;;;4904608;29;19919;-77
2022/11/21 16:28:59;;;;;;;;;;;;;;;;;;4910558;29;19923;-77
2022/11/21 16:31:46;;;;;;;;;;;;;;;;;;4908942;29;19915;-77
2022/11/21 16:34:33;;;;;;;;;;;;;;;;;;4901701;29;19926;-77
2022/11/21 16:37:19;;;;;;;;;;;;;;;;;;4903154;29;19916;-77
2022/11/21 16:40:06;;;;;;;;;;;;;;;;;;4901361;29;20658;-77
2022/11/21 16:42:52;;;;;;;;;;;;;;;;;;4899795;29;19919;-77
2022/11/21 16:45:39;;;;;;;;;;;;;;;;;;4904667;29;19917;-77
2022/11/21 16:48:25;;;;;;;;;;;;;;;;;;4909013;29;19924;-77
2022/11/21 16:51:12;;;;;;;;;;;;;;;;;;4899443;29;19916;-78
2022/11/21 16:53:58;;;;;;;;;;;;;;;;;;4903386;29;19920;-75
2022/11/21 16:56:45;;;;;;;;;;;;;;;;;;4902496;29;19926;-75
2022/11/21 16:59:31;;;;;;;;;;;;;;;;;;4907667;29;19942;-75
2022/11/21 17:02:18;;;;;;;;;;;;;;;;;;4896480;29;19924;-75
2022/11/21 17:05:04;;;;;;;;;;;;;;;;;;4907861;29;19927;-75
2022/11/21 17:07:50;;;;;;;;;;;;;;;;;;4907238;29;19938;-74
2022/11/21 17:10:37;;;;;;;;;;;;;;;;;;4906353;29;19927;-74
2022/11/21 17:13:25;;;;;;;;;;;;;;;;;;4909482;29;19923;-75
2022/11/21 17:16:12;;;;;;;;;;;;;;;;;;4901030;29;20236;-75
2022/11/21 17:18:58;;;;;;;;;;;;;;;;;;4904508;29;19918;-75
2022/11/21 17:21:44;;;;;;;;;;;;;;;;;;4898871;29;19918;-76
2022/11/21 17:24:31;;;;;;;;;;;;;;;;;;4902895;29;19923;-76
2022/11/21 17:27:17;;;;;;;;;;;;;;;;;;4899823;29;19927;-75
2022/11/21 17:30:04;;;;;;;;;;;;;;;;;;4916213;29;20252;-77
2022/11/21 17:32:50;;;;;;;;;;;;;;;;;;4902981;29;20009;-77
2022/11/21 17:35:37;;;;;;;;;;;;;;;;;;4907847;29;20382;-77
2022/11/21 17:38:23;;;;;;;;;;;;;;;;;;4905920;29;19919;-77
2022/11/21 17:41:10;;;;;;;;;;;;;;;;;;4904674;29;19921;-77
2022/11/21 17:43:56;;;;;;;;;;;;;;;;;;4902489;29;19926;-77
2022/11/21 17:46:43;;;;;;;;;;;;;;;;;;4906747;29;19926;-77
2022/11/21 17:49:35;;;;;;;;;;;;;;;;;;4907590;29;19911;-76
2022/11/21 17:52:22;;;;;;;;;;;;;;;;;;4902216;29;20395;-76
2022/11/21 17:55:08;;;;;;;;;;;;;;;;;;4900544;29;19911;-76
2022/11/21 17:57:55;;;;;;;;;;;;;;;;;;4898787;29;19923;-76
2022/11/21 18:00:41;;;;;;;;;;;;;;;;;;4900364;29;19916;-77
2022/11/21 18:03:28;;;;;;;;;;;;;;;;;;4909861;29;19922;-77
2022/11/21 18:06:14;;;;;;;;;;;;;;;;;;4908178;29;20399;-76
2022/11/21 18:09:01;;;;;;;;;;;;;;;;;;4909795;29;19916;-76
2022/11/21 18:11:47;;;;;;;;;;;;;;;;;;4903781;29;19915;-77
2022/11/21 18:14:33;;;;;;;;;;;;;;;;;;4907264;29;19912;-76
2022/11/21 18:17:20;;;;;;;;;;;;;;;;;;4909100;29;20291;-77
2022/11/21 18:20:06;;;;;;;;;;;;;;;;;;4903006;29;19919;-76
2022/11/21 18:22:53;;;;;;;;;;;;;;;;;;4897634;29;20334;-77
2022/11/21 18:25:39;;;;;;;;;;;;;;;;;;4909898;29;19917;-76
2022/11/21 18:28:26;;;;;;;;;;;;;;;;;;4899918;29;19939;-76
2022/11/21 18:31:12;;;;;;;;;;;;;;;;;;4900550;29;19919;-85
2022/11/21 18:33:59;;;;;;;;;;;;;;;;;;4906175;29;19924;-84
2022/11/21 18:36:46;;;;;;;;;;;;;;;;;;4907098;29;19923;-83
2022/11/21 18:39:33;;;;;;;;;;;;;;;;;;4905177;29;19918;-83
2022/11/21 18:42:19;;;;;;;;;;;;;;;;;;4896931;29;19922;-84
2022/11/21 18:45:06;;;;;;;;;;;;;;;;;;4905413;29;19923;-84
2022/11/21 18:47:52;;;;;;;;;;;;;;;;;;4894430;29;19922;-84
2022/11/21 18:50:38;;;;;;;;;;;;;;;;;;4896137;29;19915;-84
2022/11/21 18:53:25;;;;;;;;;;;;;;;;;;4912640;29;20216;-83
2022/11/21 18:56:11;;;;;;;;;;;;;;;;;;4898166;29;19923;-84
2022/11/21 18:58:58;;;;;;;;;;;;;;;;;;4900862;29;19918;-84
2022/11/21 19:01:45;;;;;;;;;;;;;;;;;;4900987;29;19915;-83
2022/11/21 19:04:31;;;;;;;;;;;;;;;;;;4909264;29;19927;-83
2022/11/21 19:07:17;;;;;;;;;;;;;;;;;;4905208;29;19923;-84
2022/11/21 19:10:04;;;;;;;;;;;;;;;;;;4908199;29;19923;-83
2022/11/21 19:12:50;;;;;;;;;;;;;;;;;;4897402;29;19923;-83
2022/11/21 19:15:37;;;;;;;;;;;;;;;;;;4902555;29;20011;-82
2022/11/21 19:18:23;;;;;;;;;;;;;;;;;;4899187;29;19924;-83
2022/11/21 19:21:10;;;;;;;;;;;;;;;;;;4901976;29;19911;-83
2022/11/21 19:23:56;;;;;;;;;;;;;;;;;;4908340;29;19911;-83
2022/11/21 19:26:43;;;;;;;;;;;;;;;;;;4900520;29;19915;-82
2022/11/21 19:29:30;;;;;;;;;;;;;;;;;;4901192;29;19941;-82
2022/11/21 19:32:16;;;;;;;;;;;;;;;;;;4913406;29;19923;-82
2022/11/21 19:35:03;;;;;;;;;;;;;;;;;;4901145;29;20304;-82
2022/11/21 19:37:49;;;;;;;;;;;;;;;;;;4899324;29;19912;-82
2022/11/21 19:43:41;;;;;;;;;;;;;;;;;;4899327;29;20520;-82